sensor_id;sensor_type;location;lat;lon;timestamp;P1;durP1;ratioP1;P2;durP2;ratioP2
16288;SDS011;26089;43.538;5.250;2022-12-10T00:00:10;70.33;;;32.10;;
16288;SDS011;26089;43.538;5.250;2022-12-10T00:02:39;87.17;;;29.47;;
16288;SDS011;26089;43.538;5.250;2022-12-10T00:05:06;71.93;;;30.63;;
16288;SDS011;26089;43.538;5.250;2022-12-10T00:07:34;60.30;;;30.23;;
16288;SDS011;26089;43.538;5.250;2022-12-10T00:10:01;59.03;;;29.13;;
16288;SDS011;26089;43.538;5.250;2022-12-10T00:12:28;62.33;;;28.80;;
16288;SDS011;26089;43.538;5.250;2022-12-10T00:14:55;51.70;;;28.50;;
16288;SDS011;26089;43.538;5.250;2022-12-10T00:17:23;57.40;;;29.43;;
16288;SDS011;26089;43.538;5.250;2022-12-10T00:19:50;57.17;;;30.40;;
16288;SDS011;26089;43.538;5.250;2022-12-10T00:22:17;86.77;;;31.77;;
16288;SDS011;26089;43.538;5.250;2022-12-10T00:24:44;86.50;;;29.83;;
16288;SDS011;26089;43.538;5.250;2022-12-10T00:27:12;69.10;;;29.93;;
16288;SDS011;26089;43.538;5.250;2022-12-10T00:29:39;53.40;;;29.10;;
16288;SDS011;26089;43.538;5.250;2022-12-10T00:32:06;62.37;;;27.93;;
16288;SDS011;26089;43.538;5.250;2022-12-10T00:34:35;63.30;;;30.33;;
16288;SDS011;26089;43.538;5.250;2022-12-10T00:37:02;61.30;;;30.00;;
16288;SDS011;26089;43.538;5.250;2022-12-10T00:39:29;62.23;;;31.57;;
16288;SDS011;26089;43.538;5.250;2022-12-10T00:41:56;33.63;;;21.23;;
16288;SDS011;26089;43.538;5.250;2022-12-10T00:44:23;23.30;;;17.30;;
16288;SDS011;26089;43.538;5.250;2022-12-10T00:46:50;21.97;;;14.43;;
16288;SDS011;26089;43.538;5.250;2022-12-10T00:49:17;18.00;;;13.60;;
16288;SDS011;26089;43.538;5.250;2022-12-10T00:51:50;17.53;;;12.37;;
16288;SDS011;26089;43.538;5.250;2022-12-10T00:54:17;17.83;;;12.63;;
16288;SDS011;26089;43.538;5.250;2022-12-10T00:56:44;16.30;;;12.57;;
16288;SDS011;26089;43.538;5.250;2022-12-10T00:59:12;17.47;;;12.50;;
16288;SDS011;26089;43.538;5.250;2022-12-10T01:01:39;18.20;;;13.23;;
16288;SDS011;26089;43.538;5.250;2022-12-10T01:04:09;15.93;;;12.80;;
16288;SDS011;26089;43.538;5.250;2022-12-10T01:06:40;16.27;;;12.10;;
16288;SDS011;26089;43.538;5.250;2022-12-10T01:09:10;16.77;;;13.63;;
16288;SDS011;26089;43.538;5.250;2022-12-10T01:11:39;15.07;;;12.43;;
16288;SDS011;26089;43.538;5.250;2022-12-10T01:14:08;15.77;;;11.13;;
16288;SDS011;26089;43.538;5.250;2022-12-10T01:16:37;17.93;;;12.53;;
16288;SDS011;26089;43.538;5.250;2022-12-10T01:19:04;14.13;;;11.63;;
16288;SDS011;26089;43.538;5.250;2022-12-10T01:21:31;15.67;;;11.63;;
16288;SDS011;26089;43.538;5.250;2022-12-10T01:23:59;18.87;;;14.80;;
16288;SDS011;26089;43.538;5.250;2022-12-10T01:26:29;17.30;;;13.03;;
16288;SDS011;26089;43.538;5.250;2022-12-10T01:28:57;16.70;;;12.80;;
16288;SDS011;26089;43.538;5.250;2022-12-10T01:31:26;17.43;;;14.00;;
16288;SDS011;26089;43.538;5.250;2022-12-10T01:33:55;22.67;;;16.67;;
16288;SDS011;26089;43.538;5.250;2022-12-10T01:36:23;19.33;;;14.93;;
16288;SDS011;26089;43.538;5.250;2022-12-10T01:38:52;18.33;;;13.90;;
16288;SDS011;26089;43.538;5.250;2022-12-10T01:41:21;21.20;;;12.90;;
16288;SDS011;26089;43.538;5.250;2022-12-10T01:43:53;19.83;;;13.07;;
16288;SDS011;26089;43.538;5.250;2022-12-10T01:46:21;19.17;;;12.53;;
16288;SDS011;26089;43.538;5.250;2022-12-10T01:48:49;19.57;;;13.07;;
16288;SDS011;26089;43.538;5.250;2022-12-10T01:51:17;22.20;;;13.70;;
16288;SDS011;26089;43.538;5.250;2022-12-10T01:53:44;19.73;;;12.80;;
16288;SDS011;26089;43.538;5.250;2022-12-10T01:56:13;19.10;;;12.43;;
16288;SDS011;26089;43.538;5.250;2022-12-10T01:58:42;15.47;;;12.33;;
16288;SDS011;26089;43.538;5.250;2022-12-10T02:01:12;17.50;;;12.40;;
16288;SDS011;26089;43.538;5.250;2022-12-10T02:03:49;18.47;;;12.60;;
16288;SDS011;26089;43.538;5.250;2022-12-10T02:06:25;17.07;;;11.43;;
16288;SDS011;26089;43.538;5.250;2022-12-10T02:09:02;15.77;;;10.87;;
16288;SDS011;26089;43.538;5.250;2022-12-10T02:11:37;19.80;;;12.67;;
16288;SDS011;26089;43.538;5.250;2022-12-10T02:14:11;17.70;;;11.53;;
16288;SDS011;26089;43.538;5.250;2022-12-10T02:16:46;18.10;;;12.33;;
16288;SDS011;26089;43.538;5.250;2022-12-10T02:19:19;15.70;;;12.60;;
16288;SDS011;26089;43.538;5.250;2022-12-10T02:21:52;15.47;;;11.77;;
16288;SDS011;26089;43.538;5.250;2022-12-10T02:24:22;17.47;;;11.97;;
16288;SDS011;26089;43.538;5.250;2022-12-10T02:26:54;16.33;;;10.83;;
16288;SDS011;26089;43.538;5.250;2022-12-10T02:29:28;18.43;;;14.63;;
16288;SDS011;26089;43.538;5.250;2022-12-10T02:31:59;18.27;;;14.93;;
16288;SDS011;26089;43.538;5.250;2022-12-10T02:34:31;20.77;;;15.00;;
16288;SDS011;26089;43.538;5.250;2022-12-10T02:37:03;21.00;;;14.30;;
16288;SDS011;26089;43.538;5.250;2022-12-10T02:39:33;20.07;;;15.63;;
16288;SDS011;26089;43.538;5.250;2022-12-10T02:42:04;20.00;;;16.83;;
16288;SDS011;26089;43.538;5.250;2022-12-10T02:44:35;22.07;;;16.37;;
16288;SDS011;26089;43.538;5.250;2022-12-10T02:47:04;22.20;;;14.17;;
16288;SDS011;26089;43.538;5.250;2022-12-10T02:49:32;17.27;;;13.10;;
16288;SDS011;26089;43.538;5.250;2022-12-10T02:52:05;19.13;;;11.70;;
16288;SDS011;26089;43.538;5.250;2022-12-10T02:54:35;18.80;;;12.47;;
16288;SDS011;26089;43.538;5.250;2022-12-10T02:57:08;14.20;;;10.40;;
16288;SDS011;26089;43.538;5.250;2022-12-10T03:03:03;16.60;;;10.47;;
16288;SDS011;26089;43.538;5.250;2022-12-10T03:05:40;13.40;;;10.27;;
16288;SDS011;26089;43.538;5.250;2022-12-10T03:08:13;22.27;;;13.53;;
16288;SDS011;26089;43.538;5.250;2022-12-10T03:10:45;21.53;;;12.93;;
16288;SDS011;26089;43.538;5.250;2022-12-10T03:13:19;16.03;;;11.33;;
16288;SDS011;26089;43.538;5.250;2022-12-10T03:15:51;22.67;;;14.37;;
16288;SDS011;26089;43.538;5.250;2022-12-10T03:18:20;22.40;;;13.87;;
16288;SDS011;26089;43.538;5.250;2022-12-10T03:20:51;22.33;;;13.57;;
16288;SDS011;26089;43.538;5.250;2022-12-10T03:23:21;19.13;;;13.23;;
16288;SDS011;26089;43.538;5.250;2022-12-10T03:25:48;17.20;;;11.23;;
16288;SDS011;26089;43.538;5.250;2022-12-10T03:28:17;17.60;;;11.80;;
16288;SDS011;26089;43.538;5.250;2022-12-10T03:30:47;12.57;;;9.33;;
16288;SDS011;26089;43.538;5.250;2022-12-10T03:33:18;15.53;;;11.10;;
16288;SDS011;26089;43.538;5.250;2022-12-10T03:35:46;13.30;;;9.80;;
16288;SDS011;26089;43.538;5.250;2022-12-10T03:38:13;15.43;;;11.20;;
16288;SDS011;26089;43.538;5.250;2022-12-10T03:40:41;16.37;;;11.57;;
16288;SDS011;26089;43.538;5.250;2022-12-10T03:43:08;16.27;;;10.53;;
16288;SDS011;26089;43.538;5.250;2022-12-10T03:45:39;14.50;;;11.53;;
16288;SDS011;26089;43.538;5.250;2022-12-10T03:48:08;18.03;;;13.00;;
16288;SDS011;26089;43.538;5.250;2022-12-10T03:50:35;16.50;;;11.57;;
16288;SDS011;26089;43.538;5.250;2022-12-10T03:53:02;16.67;;;11.20;;
16288;SDS011;26089;43.538;5.250;2022-12-10T03:55:29;14.07;;;10.43;;
16288;SDS011;26089;43.538;5.250;2022-12-10T03:57:57;14.00;;;10.63;;
16288;SDS011;26089;43.538;5.250;2022-12-10T04:00:24;15.07;;;10.37;;
16288;SDS011;26089;43.538;5.250;2022-12-10T04:02:51;14.03;;;10.87;;
16288;SDS011;26089;43.538;5.250;2022-12-10T04:05:20;13.60;;;10.20;;
16288;SDS011;26089;43.538;5.250;2022-12-10T04:07:47;14.23;;;10.70;;
16288;SDS011;26089;43.538;5.250;2022-12-10T04:10:14;16.67;;;11.33;;
16288;SDS011;26089;43.538;5.250;2022-12-10T04:12:41;18.67;;;12.40;;
16288;SDS011;26089;43.538;5.250;2022-12-10T04:15:28;15.93;;;10.77;;
16288;SDS011;26089;43.538;5.250;2022-12-10T04:18:12;18.13;;;12.10;;
16288;SDS011;26089;43.538;5.250;2022-12-10T04:20:41;15.87;;;11.40;;
16288;SDS011;26089;43.538;5.250;2022-12-10T04:23:26;21.37;;;11.63;;
16288;SDS011;26089;43.538;5.250;2022-12-10T04:26:10;18.63;;;11.67;;
16288;SDS011;26089;43.538;5.250;2022-12-10T04:28:55;18.17;;;11.20;;
16288;SDS011;26089;43.538;5.250;2022-12-10T04:31:22;19.30;;;12.70;;
16288;SDS011;26089;43.538;5.250;2022-12-10T04:33:49;18.27;;;12.97;;
16288;SDS011;26089;43.538;5.250;2022-12-10T04:36:17;16.70;;;11.80;;
16288;SDS011;26089;43.538;5.250;2022-12-10T04:38:44;23.53;;;13.80;;
16288;SDS011;26089;43.538;5.250;2022-12-10T04:41:11;21.67;;;13.87;;
16288;SDS011;26089;43.538;5.250;2022-12-10T04:43:40;19.23;;;12.30;;
16288;SDS011;26089;43.538;5.250;2022-12-10T04:46:07;22.53;;;14.20;;
16288;SDS011;26089;43.538;5.250;2022-12-10T04:48:34;20.67;;;14.17;;
16288;SDS011;26089;43.538;5.250;2022-12-10T04:51:02;23.17;;;14.67;;
16288;SDS011;26089;43.538;5.250;2022-12-10T04:53:30;23.07;;;14.30;;
16288;SDS011;26089;43.538;5.250;2022-12-10T04:55:57;24.27;;;15.03;;
16288;SDS011;26089;43.538;5.250;2022-12-10T04:58:26;20.70;;;13.73;;
16288;SDS011;26089;43.538;5.250;2022-12-10T05:01:00;17.87;;;13.37;;
16288;SDS011;26089;43.538;5.250;2022-12-10T05:03:28;20.57;;;13.83;;
16288;SDS011;26089;43.538;5.250;2022-12-10T05:05:55;20.90;;;14.30;;
16288;SDS011;26089;43.538;5.250;2022-12-10T05:08:22;20.73;;;13.63;;
16288;SDS011;26089;43.538;5.250;2022-12-10T05:10:50;19.23;;;12.87;;
16288;SDS011;26089;43.538;5.250;2022-12-10T05:13:17;21.17;;;14.50;;
16288;SDS011;26089;43.538;5.250;2022-12-10T05:15:44;21.80;;;14.37;;
16288;SDS011;26089;43.538;5.250;2022-12-10T05:18:11;23.27;;;14.97;;
16288;SDS011;26089;43.538;5.250;2022-12-10T05:20:38;22.13;;;14.13;;
16288;SDS011;26089;43.538;5.250;2022-12-10T05:23:05;23.43;;;13.97;;
16288;SDS011;26089;43.538;5.250;2022-12-10T05:25:58;23.57;;;14.17;;
16288;SDS011;26089;43.538;5.250;2022-12-10T05:28:26;22.67;;;14.70;;
16288;SDS011;26089;43.538;5.250;2022-12-10T05:30:54;21.97;;;13.20;;
16288;SDS011;26089;43.538;5.250;2022-12-10T05:33:21;22.70;;;14.20;;
16288;SDS011;26089;43.538;5.250;2022-12-10T05:35:52;23.73;;;13.03;;
16288;SDS011;26089;43.538;5.250;2022-12-10T05:38:20;23.17;;;14.97;;
16288;SDS011;26089;43.538;5.250;2022-12-10T05:40:47;21.50;;;14.53;;
16288;SDS011;26089;43.538;5.250;2022-12-10T05:43:16;22.37;;;13.10;;
16288;SDS011;26089;43.538;5.250;2022-12-10T05:45:43;19.90;;;13.60;;
16288;SDS011;26089;43.538;5.250;2022-12-10T05:48:11;20.50;;;13.80;;
16288;SDS011;26089;43.538;5.250;2022-12-10T05:50:40;19.27;;;13.17;;
16288;SDS011;26089;43.538;5.250;2022-12-10T05:53:07;21.07;;;14.03;;
16288;SDS011;26089;43.538;5.250;2022-12-10T05:55:34;19.73;;;12.43;;
16288;SDS011;26089;43.538;5.250;2022-12-10T05:58:01;20.53;;;13.87;;
16288;SDS011;26089;43.538;5.250;2022-12-10T06:00:30;22.10;;;13.17;;
16288;SDS011;26089;43.538;5.250;2022-12-10T06:02:57;18.43;;;13.23;;
16288;SDS011;26089;43.538;5.250;2022-12-10T06:05:24;19.60;;;13.33;;
16288;SDS011;26089;43.538;5.250;2022-12-10T06:07:51;20.93;;;12.63;;
16288;SDS011;26089;43.538;5.250;2022-12-10T06:10:18;19.30;;;13.20;;
16288;SDS011;26089;43.538;5.250;2022-12-10T06:12:45;18.17;;;12.10;;
16288;SDS011;26089;43.538;5.250;2022-12-10T06:15:12;19.93;;;12.60;;
16288;SDS011;26089;43.538;5.250;2022-12-10T06:17:40;16.50;;;12.10;;
16288;SDS011;26089;43.538;5.250;2022-12-10T06:20:08;18.47;;;12.53;;
16288;SDS011;26089;43.538;5.250;2022-12-10T06:22:36;18.63;;;13.60;;
16288;SDS011;26089;43.538;5.250;2022-12-10T06:25:03;20.23;;;13.67;;
16288;SDS011;26089;43.538;5.250;2022-12-10T06:27:31;18.77;;;12.70;;
16288;SDS011;26089;43.538;5.250;2022-12-10T06:29:58;18.10;;;12.47;;
16288;SDS011;26089;43.538;5.250;2022-12-10T06:32:26;17.87;;;12.60;;
16288;SDS011;26089;43.538;5.250;2022-12-10T06:34:54;17.93;;;12.13;;
16288;SDS011;26089;43.538;5.250;2022-12-10T06:37:21;18.37;;;12.43;;
16288;SDS011;26089;43.538;5.250;2022-12-10T06:39:49;17.30;;;12.80;;
16288;SDS011;26089;43.538;5.250;2022-12-10T06:42:17;16.50;;;11.67;;
16288;SDS011;26089;43.538;5.250;2022-12-10T06:44:44;16.50;;;11.27;;
16288;SDS011;26089;43.538;5.250;2022-12-10T06:47:11;16.77;;;10.93;;
16288;SDS011;26089;43.538;5.250;2022-12-10T06:49:38;16.67;;;11.07;;
16288;SDS011;26089;43.538;5.250;2022-12-10T06:52:07;16.07;;;11.73;;
16288;SDS011;26089;43.538;5.250;2022-12-10T06:54:34;17.77;;;11.83;;
16288;SDS011;26089;43.538;5.250;2022-12-10T06:57:01;15.20;;;12.03;;
16288;SDS011;26089;43.538;5.250;2022-12-10T06:59:28;17.17;;;11.63;;
16288;SDS011;26089;43.538;5.250;2022-12-10T07:01:55;21.13;;;11.97;;
16288;SDS011;26089;43.538;5.250;2022-12-10T07:04:22;16.10;;;10.40;;
16288;SDS011;26089;43.538;5.250;2022-12-10T07:06:50;15.60;;;10.47;;
16288;SDS011;26089;43.538;5.250;2022-12-10T07:09:18;13.70;;;10.07;;
16288;SDS011;26089;43.538;5.250;2022-12-10T07:11:45;15.20;;;10.37;;
16288;SDS011;26089;43.538;5.250;2022-12-10T07:14:13;14.60;;;9.80;;
16288;SDS011;26089;43.538;5.250;2022-12-10T07:16:41;13.03;;;9.63;;
16288;SDS011;26089;43.538;5.250;2022-12-10T07:19:09;12.13;;;9.83;;
16288;SDS011;26089;43.538;5.250;2022-12-10T07:21:38;14.53;;;10.43;;
16288;SDS011;26089;43.538;5.250;2022-12-10T07:24:08;16.00;;;10.63;;
16288;SDS011;26089;43.538;5.250;2022-12-10T07:26:39;15.20;;;11.20;;
16288;SDS011;26089;43.538;5.250;2022-12-10T07:29:08;11.03;;;9.37;;
16288;SDS011;26089;43.538;5.250;2022-12-10T07:31:38;11.57;;;9.43;;
16288;SDS011;26089;43.538;5.250;2022-12-10T07:34:05;14.00;;;10.70;;
16288;SDS011;26089;43.538;5.250;2022-12-10T07:36:33;16.87;;;11.70;;
16288;SDS011;26089;43.538;5.250;2022-12-10T07:39:00;14.20;;;9.57;;
16288;SDS011;26089;43.538;5.250;2022-12-10T07:41:27;13.97;;;9.90;;
16288;SDS011;26089;43.538;5.250;2022-12-10T07:43:56;11.13;;;8.77;;
16288;SDS011;26089;43.538;5.250;2022-12-10T07:46:24;9.27;;;7.53;;
16288;SDS011;26089;43.538;5.250;2022-12-10T07:48:53;11.00;;;8.47;;
16288;SDS011;26089;43.538;5.250;2022-12-10T07:51:20;12.53;;;9.37;;
16288;SDS011;26089;43.538;5.250;2022-12-10T07:53:48;12.43;;;9.10;;
16288;SDS011;26089;43.538;5.250;2022-12-10T07:56:17;10.30;;;9.20;;
16288;SDS011;26089;43.538;5.250;2022-12-10T07:58:44;9.07;;;7.60;;
16288;SDS011;26089;43.538;5.250;2022-12-10T08:01:13;7.70;;;6.90;;
16288;SDS011;26089;43.538;5.250;2022-12-10T08:03:42;6.77;;;6.07;;
16288;SDS011;26089;43.538;5.250;2022-12-10T08:06:09;7.77;;;6.17;;
16288;SDS011;26089;43.538;5.250;2022-12-10T08:08:38;6.87;;;6.13;;
16288;SDS011;26089;43.538;5.250;2022-12-10T08:11:06;5.80;;;5.20;;
16288;SDS011;26089;43.538;5.250;2022-12-10T08:13:34;6.33;;;5.70;;
16288;SDS011;26089;43.538;5.250;2022-12-10T08:16:01;6.00;;;5.37;;
16288;SDS011;26089;43.538;5.250;2022-12-10T08:18:30;6.10;;;4.97;;
16288;SDS011;26089;43.538;5.250;2022-12-10T08:20:58;6.20;;;5.60;;
16288;SDS011;26089;43.538;5.250;2022-12-10T08:23:29;6.17;;;5.57;;
16288;SDS011;26089;43.538;5.250;2022-12-10T08:25:56;6.77;;;5.33;;
16288;SDS011;26089;43.538;5.250;2022-12-10T08:28:24;5.97;;;5.30;;
16288;SDS011;26089;43.538;5.250;2022-12-10T08:30:51;5.60;;;5.10;;
16288;SDS011;26089;43.538;5.250;2022-12-10T08:33:18;6.27;;;5.70;;
16288;SDS011;26089;43.538;5.250;2022-12-10T08:35:46;5.53;;;5.03;;
16288;SDS011;26089;43.538;5.250;2022-12-10T08:38:13;5.53;;;5.03;;
16288;SDS011;26089;43.538;5.250;2022-12-10T08:40:40;5.30;;;4.80;;
16288;SDS011;26089;43.538;5.250;2022-12-10T08:43:07;5.30;;;4.80;;
16288;SDS011;26089;43.538;5.250;2022-12-10T08:45:34;6.80;;;5.00;;
16288;SDS011;26089;43.538;5.250;2022-12-10T08:48:02;6.20;;;5.60;;
16288;SDS011;26089;43.538;5.250;2022-12-10T08:50:29;5.90;;;5.40;;
16288;SDS011;26089;43.538;5.250;2022-12-10T08:52:57;5.07;;;4.67;;
16288;SDS011;26089;43.538;5.250;2022-12-10T08:55:25;6.10;;;5.50;;
16288;SDS011;26089;43.538;5.250;2022-12-10T08:57:52;5.30;;;4.80;;
16288;SDS011;26089;43.538;5.250;2022-12-10T09:00:19;5.57;;;5.03;;
16288;SDS011;26089;43.538;5.250;2022-12-10T09:02:46;5.07;;;4.57;;
16288;SDS011;26089;43.538;5.250;2022-12-10T09:05:13;6.83;;;5.77;;
16288;SDS011;26089;43.538;5.250;2022-12-10T09:07:40;5.03;;;4.63;;
16288;SDS011;26089;43.538;5.250;2022-12-10T09:10:10;5.07;;;4.57;;
16288;SDS011;26089;43.538;5.250;2022-12-10T09:12:37;5.63;;;5.13;;
16288;SDS011;26089;43.538;5.250;2022-12-10T09:15:05;4.90;;;4.40;;
16288;SDS011;26089;43.538;5.250;2022-12-10T09:17:34;5.37;;;4.90;;
16288;SDS011;26089;43.538;5.250;2022-12-10T09:20:03;5.30;;;4.80;;
16288;SDS011;26089;43.538;5.250;2022-12-10T09:22:31;5.57;;;4.93;;
16288;SDS011;26089;43.538;5.250;2022-12-10T09:25:02;5.53;;;4.60;;
16288;SDS011;26089;43.538;5.250;2022-12-10T09:27:31;5.83;;;5.23;;
16288;SDS011;26089;43.538;5.250;2022-12-10T09:29:59;5.97;;;4.80;;
16288;SDS011;26089;43.538;5.250;2022-12-10T09:32:26;5.90;;;4.80;;
16288;SDS011;26089;43.538;5.250;2022-12-10T09:34:53;5.37;;;4.87;;
16288;SDS011;26089;43.538;5.250;2022-12-10T09:37:20;5.10;;;4.60;;
16288;SDS011;26089;43.538;5.250;2022-12-10T09:39:47;5.23;;;4.73;;
16288;SDS011;26089;43.538;5.250;2022-12-10T09:42:18;5.23;;;4.73;;
16288;SDS011;26089;43.538;5.250;2022-12-10T09:44:56;5.33;;;4.83;;
16288;SDS011;26089;43.538;5.250;2022-12-10T09:47:29;5.43;;;4.93;;
16288;SDS011;26089;43.538;5.250;2022-12-10T09:50:02;7.00;;;6.03;;
16288;SDS011;26089;43.538;5.250;2022-12-10T09:52:39;5.60;;;5.10;;
16288;SDS011;26089;43.538;5.250;2022-12-10T09:55:12;6.33;;;5.70;;
16288;SDS011;26089;43.538;5.250;2022-12-10T09:57:41;6.40;;;5.70;;
16288;SDS011;26089;43.538;5.250;2022-12-10T10:00:22;5.40;;;4.87;;
16288;SDS011;26089;43.538;5.250;2022-12-10T10:02:54;6.97;;;5.93;;
16288;SDS011;26089;43.538;5.250;2022-12-10T10:05:25;7.47;;;6.17;;
16288;SDS011;26089;43.538;5.250;2022-12-10T10:07:55;6.40;;;5.70;;
16288;SDS011;26089;43.538;5.250;2022-12-10T10:10:25;7.50;;;6.20;;
16288;SDS011;26089;43.538;5.250;2022-12-10T10:12:54;7.73;;;6.93;;
16288;SDS011;26089;43.538;5.250;2022-12-10T10:15:27;7.57;;;6.83;;
16288;SDS011;26089;43.538;5.250;2022-12-10T10:17:58;9.40;;;7.73;;
16288;SDS011;26089;43.538;5.250;2022-12-10T10:20:29;7.30;;;6.57;;
16288;SDS011;26089;43.538;5.250;2022-12-10T10:22:56;8.50;;;7.30;;
16288;SDS011;26089;43.538;5.250;2022-12-10T10:25:25;8.30;;;7.43;;
16288;SDS011;26089;43.538;5.250;2022-12-10T10:27:53;9.50;;;7.80;;
16288;SDS011;26089;43.538;5.250;2022-12-10T10:30:21;8.63;;;7.63;;
16288;SDS011;26089;43.538;5.250;2022-12-10T10:32:51;9.43;;;8.03;;
16288;SDS011;26089;43.538;5.250;2022-12-10T10:35:24;10.27;;;8.60;;
16288;SDS011;26089;43.538;5.250;2022-12-10T10:37:56;10.43;;;8.47;;
16288;SDS011;26089;43.538;5.250;2022-12-10T10:40:25;10.07;;;8.00;;
16288;SDS011;26089;43.538;5.250;2022-12-10T10:42:56;10.63;;;9.53;;
16288;SDS011;26089;43.538;5.250;2022-12-10T10:45:32;11.13;;;8.93;;
16288;SDS011;26089;43.538;5.250;2022-12-10T10:48:08;10.83;;;8.93;;
16288;SDS011;26089;43.538;5.250;2022-12-10T10:50:39;10.53;;;8.77;;
16288;SDS011;26089;43.538;5.250;2022-12-10T10:53:21;11.53;;;9.80;;
16288;SDS011;26089;43.538;5.250;2022-12-10T10:56:00;11.70;;;8.67;;
16288;SDS011;26089;43.538;5.250;2022-12-10T10:58:33;12.57;;;9.80;;
16288;SDS011;26089;43.538;5.250;2022-12-10T11:01:02;11.50;;;9.37;;
16288;SDS011;26089;43.538;5.250;2022-12-10T11:03:34;11.00;;;8.77;;
16288;SDS011;26089;43.538;5.250;2022-12-10T11:06:04;11.77;;;9.53;;
16288;SDS011;26089;43.538;5.250;2022-12-10T11:08:33;12.53;;;9.70;;
16288;SDS011;26089;43.538;5.250;2022-12-10T11:11:04;11.57;;;9.90;;
16288;SDS011;26089;43.538;5.250;2022-12-10T11:13:33;10.77;;;9.50;;
16288;SDS011;26089;43.538;5.250;2022-12-10T11:16:02;11.17;;;9.50;;
16288;SDS011;26089;43.538;5.250;2022-12-10T11:18:40;12.43;;;9.93;;
16288;SDS011;26089;43.538;5.250;2022-12-10T11:21:15;11.43;;;9.57;;
16288;SDS011;26089;43.538;5.250;2022-12-10T11:23:47;13.63;;;9.60;;
16288;SDS011;26089;43.538;5.250;2022-12-10T11:29:18;12.33;;;10.20;;
16288;SDS011;26089;43.538;5.250;2022-12-10T11:32:03;13.47;;;9.73;;
16288;SDS011;26089;43.538;5.250;2022-12-10T11:34:43;10.47;;;8.93;;
16288;SDS011;26089;43.538;5.250;2022-12-10T11:37:20;10.97;;;9.77;;
16288;SDS011;26089;43.538;5.250;2022-12-10T11:40:00;10.43;;;9.30;;
16288;SDS011;26089;43.538;5.250;2022-12-10T11:42:38;12.97;;;10.37;;
16288;SDS011;26089;43.538;5.250;2022-12-10T11:45:21;10.27;;;8.67;;
16288;SDS011;26089;43.538;5.250;2022-12-10T11:47:58;9.70;;;8.70;;
16288;SDS011;26089;43.538;5.250;2022-12-10T11:50:41;13.13;;;8.47;;
16288;SDS011;26089;43.538;5.250;2022-12-10T11:56:21;10.33;;;8.70;;
16288;SDS011;26089;43.538;5.250;2022-12-10T11:59:01;10.57;;;9.00;;
16288;SDS011;26089;43.538;5.250;2022-12-10T12:01:43;11.13;;;8.93;;
16288;SDS011;26089;43.538;5.250;2022-12-10T12:04:24;11.43;;;8.97;;
16288;SDS011;26089;43.538;5.250;2022-12-10T12:07:17;11.90;;;9.57;;
16288;SDS011;26089;43.538;5.250;2022-12-10T12:10:01;11.00;;;8.40;;
16288;SDS011;26089;43.538;5.250;2022-12-10T12:12:50;10.20;;;7.87;;
16288;SDS011;26089;43.538;5.250;2022-12-10T12:15:25;10.07;;;8.40;;
16288;SDS011;26089;43.538;5.250;2022-12-10T12:17:57;11.23;;;9.13;;
16288;SDS011;26089;43.538;5.250;2022-12-10T12:20:29;9.20;;;7.93;;
16288;SDS011;26089;43.538;5.250;2022-12-10T12:23:03;9.87;;;7.97;;
16288;SDS011;26089;43.538;5.250;2022-12-10T12:25:38;11.17;;;8.20;;
16288;SDS011;26089;43.538;5.250;2022-12-10T12:28:10;10.10;;;8.50;;
16288;SDS011;26089;43.538;5.250;2022-12-10T12:30:41;9.53;;;8.10;;
16288;SDS011;26089;43.538;5.250;2022-12-10T12:33:13;10.03;;;8.10;;
16288;SDS011;26089;43.538;5.250;2022-12-10T12:35:47;9.33;;;8.23;;
16288;SDS011;26089;43.538;5.250;2022-12-10T12:38:28;8.97;;;7.20;;
16288;SDS011;26089;43.538;5.250;2022-12-10T12:40:59;9.13;;;8.00;;
16288;SDS011;26089;43.538;5.250;2022-12-10T12:43:32;10.63;;;7.77;;
16288;SDS011;26089;43.538;5.250;2022-12-10T12:46:09;8.70;;;7.80;;
16288;SDS011;26089;43.538;5.250;2022-12-10T12:48:41;9.10;;;6.93;;
16288;SDS011;26089;43.538;5.250;2022-12-10T12:51:17;8.80;;;6.80;;
16288;SDS011;26089;43.538;5.250;2022-12-10T12:53:50;8.67;;;6.77;;
16288;SDS011;26089;43.538;5.250;2022-12-10T12:56:20;8.47;;;7.27;;
16288;SDS011;26089;43.538;5.250;2022-12-10T12:58:57;8.83;;;7.53;;
16288;SDS011;26089;43.538;5.250;2022-12-10T13:01:36;10.40;;;7.53;;
16288;SDS011;26089;43.538;5.250;2022-12-10T13:04:06;9.33;;;7.30;;
16288;SDS011;26089;43.538;5.250;2022-12-10T13:06:35;7.80;;;7.00;;
16288;SDS011;26089;43.538;5.250;2022-12-10T13:09:17;9.03;;;7.67;;
16288;SDS011;26089;43.538;5.250;2022-12-10T13:14:53;11.37;;;7.87;;
16288;SDS011;26089;43.538;5.250;2022-12-10T13:17:27;10.23;;;7.67;;
16288;SDS011;26089;43.538;5.250;2022-12-10T13:22:59;10.30;;;7.53;;
16288;SDS011;26089;43.538;5.250;2022-12-10T13:25:40;7.83;;;6.80;;
16288;SDS011;26089;43.538;5.250;2022-12-10T13:28:22;10.17;;;8.50;;
16288;SDS011;26089;43.538;5.250;2022-12-10T13:34:19;10.43;;;7.40;;
16288;SDS011;26089;43.538;5.250;2022-12-10T13:37:04;11.27;;;8.20;;
16288;SDS011;26089;43.538;5.250;2022-12-10T13:39:44;12.47;;;8.00;;
16288;SDS011;26089;43.538;5.250;2022-12-10T13:45:26;8.87;;;7.40;;
16288;SDS011;26089;43.538;5.250;2022-12-10T13:53:47;10.43;;;7.93;;
16288;SDS011;26089;43.538;5.250;2022-12-10T13:56:32;10.70;;;8.03;;
16288;SDS011;26089;43.538;5.250;2022-12-10T13:59:12;9.77;;;8.23;;
16288;SDS011;26089;43.538;5.250;2022-12-10T14:01:50;9.00;;;7.50;;
16288;SDS011;26089;43.538;5.250;2022-12-10T14:04:33;9.23;;;8.10;;
16288;SDS011;26089;43.538;5.250;2022-12-10T14:07:11;9.97;;;7.80;;
16288;SDS011;26089;43.538;5.250;2022-12-10T14:09:41;9.80;;;7.70;;
16288;SDS011;26089;43.538;5.250;2022-12-10T14:12:14;9.83;;;7.60;;
16288;SDS011;26089;43.538;5.250;2022-12-10T14:14:45;10.97;;;8.40;;
16288;SDS011;26089;43.538;5.250;2022-12-10T14:17:17;10.40;;;8.00;;
16288;SDS011;26089;43.538;5.250;2022-12-10T14:19:47;11.67;;;9.00;;
16288;SDS011;26089;43.538;5.250;2022-12-10T14:22:18;11.57;;;8.47;;
16288;SDS011;26089;43.538;5.250;2022-12-10T14:24:49;9.90;;;7.60;;
16288;SDS011;26089;43.538;5.250;2022-12-10T14:27:18;12.23;;;9.13;;
16288;SDS011;26089;43.538;5.250;2022-12-10T14:29:52;10.73;;;8.30;;
16288;SDS011;26089;43.538;5.250;2022-12-10T14:32:25;10.97;;;8.17;;
16288;SDS011;26089;43.538;5.250;2022-12-10T14:34:56;10.27;;;8.73;;
16288;SDS011;26089;43.538;5.250;2022-12-10T14:37:25;10.87;;;8.63;;
16288;SDS011;26089;43.538;5.250;2022-12-10T14:39:53;10.83;;;8.00;;
16288;SDS011;26089;43.538;5.250;2022-12-10T14:42:21;12.07;;;8.90;;
16288;SDS011;26089;43.538;5.250;2022-12-10T14:44:54;10.60;;;7.73;;
16288;SDS011;26089;43.538;5.250;2022-12-10T14:47:23;10.77;;;8.43;;
16288;SDS011;26089;43.538;5.250;2022-12-10T14:49:51;10.27;;;8.10;;
16288;SDS011;26089;43.538;5.250;2022-12-10T14:52:21;10.77;;;7.67;;
16288;SDS011;26089;43.538;5.250;2022-12-10T14:54:49;9.57;;;8.13;;
16288;SDS011;26089;43.538;5.250;2022-12-10T14:57:20;11.33;;;8.60;;
16288;SDS011;26089;43.538;5.250;2022-12-10T14:59:54;12.07;;;8.67;;
16288;SDS011;26089;43.538;5.250;2022-12-10T15:02:27;14.00;;;8.13;;
16288;SDS011;26089;43.538;5.250;2022-12-10T15:04:56;9.77;;;7.80;;
16288;SDS011;26089;43.538;5.250;2022-12-10T15:07:25;9.97;;;7.43;;
16288;SDS011;26089;43.538;5.250;2022-12-10T15:09:57;12.20;;;7.83;;
16288;SDS011;26089;43.538;5.250;2022-12-10T15:12:29;11.53;;;8.13;;
16288;SDS011;26089;43.538;5.250;2022-12-10T15:15:07;9.07;;;7.20;;
16288;SDS011;26089;43.538;5.250;2022-12-10T15:17:40;10.07;;;7.60;;